Time;durP1;ratioP1;P1;durP2;ratioP2;P2;SDS_P1;SDS_P2;PMS_P1;PMS_P2;Temp;Humidity;BMP_temperature;BMP_pressure;BME280_temperature;BME280_humidity;BME280_pressure;Samples;Min_cycle;Max_cycle;Signal;HPM_P1;HPM_P2
2020/12/17 00:00:06;;;;;;;5.80;4.80;;;11.90;99.90;;;;;;2121717;28;20069;-76
2020/12/17 00:01:07;;;;;;;7.57;4.97;;;11.90;99.90;;;;;;2112754;28;20062;-76
2020/12/17 00:02:07;;;;;;;6.45;5.25;;;12.00;99.90;;;;;;2112082;28;20024;-77
2020/12/17 00:03:08;;;;;;;8.20;5.45;;;12.00;99.90;;;;;;2121452;28;20023;-76
2020/12/17 00:04:09;;;;;;;5.55;4.88;;;11.90;99.90;;;;;;2112508;28;20047;-75
2020/12/17 00:05:09;;;;;;;10.48;5.93;;;12.00;99.90;;;;;;2112430;28;20045;-79
2020/12/17 00:06:12;;;;;;;6.70;5.18;;;11.90;99.90;;;;;;2111599;28;20109;-79
2020/12/17 00:07:13;;;;;;;7.50;4.78;;;12.00;99.90;;;;;;2112681;27;20467;-77
2020/12/17 00:08:18;;;;;;;4.82;4.32;;;12.00;99.90;;;;;;2114005;28;20118;-76
2020/12/17 00:09:18;;;;;;;8.18;4.78;;;12.00;99.90;;;;;;2114432;27;20459;-75
2020/12/17 00:10:19;;;;;;;5.57;4.60;;;11.90;99.90;;;;;;2123041;27;20058;-76
2020/12/17 00:11:20;;;;;;;5.00;4.50;;;12.00;99.90;;;;;;2123135;27;20023;-76
2020/12/17 00:12:20;;;;;;;5.95;4.78;;;12.00;99.90;;;;;;2113602;28;20115;-76
2020/12/17 00:13:22;;;;;;;5.32;4.30;;;11.90;99.90;;;;;;2114184;28;20043;-77
2020/12/17 00:14:23;;;;;;;4.88;4.35;;;12.00;99.90;;;;;;2122829;27;20019;-76
2020/12/17 00:15:23;;;;;;;5.60;4.65;;;12.00;99.90;;;;;;2122982;27;20038;-77
2020/12/17 00:16:24;;;;;;;6.57;5.28;;;12.00;99.90;;;;;;2113880;28;20078;-78
2020/12/17 00:17:25;;;;;;;5.15;4.18;;;12.00;99.90;;;;;;2113901;28;20027;-76
2020/12/17 00:18:25;;;;;;;5.50;4.38;;;12.00;99.90;;;;;;2113962;28;20435;-77
2020/12/17 00:19:26;;;;;;;4.65;4.25;;;12.00;99.90;;;;;;2113942;28;20024;-77
2020/12/17 00:20:26;;;;;;;6.90;4.38;;;12.00;99.90;;;;;;2122973;27;20051;-78
2020/12/17 00:21:27;;;;;;;6.30;4.45;;;12.00;99.90;;;;;;2113340;28;20049;-76
2020/12/17 00:22:33;;;;;;;4.80;4.28;;;12.00;99.90;;;;;;2113797;28;20069;-76
2020/12/17 00:23:33;;;;;;;5.03;4.15;;;12.00;99.90;;;;;;2105350;28;20028;-78
2020/12/17 00:24:34;;;;;;;6.57;4.18;;;12.00;99.90;;;;;;2097217;28;20119;-77
2020/12/17 00:25:35;;;;;;;5.60;4.30;;;12.10;99.90;;;;;;2113838;28;20024;-79
2020/12/17 00:26:35;;;;;;;7.43;4.40;;;12.10;99.90;;;;;;2113634;28;20015;-76
2020/12/17 00:27:37;;;;;;;5.38;3.88;;;12.10;99.90;;;;;;2113830;28;20124;-78
2020/12/17 00:28:38;;;;;;;4.95;4.05;;;12.10;99.90;;;;;;2122751;27;20011;-76
2020/12/17 00:29:39;;;;;;;5.35;4.22;;;12.10;99.90;;;;;;2122845;27;20036;-77
2020/12/17 00:30:39;;;;;;;5.38;4.45;;;12.10;99.90;;;;;;2105375;28;20035;-78
2020/12/17 00:31:40;;;;;;;4.75;4.32;;;12.10;99.90;;;;;;2104876;28;20093;-78
2020/12/17 00:32:41;;;;;;;4.88;4.30;;;12.10;99.90;;;;;;2113581;28;20532;-77
2020/12/17 00:33:42;;;;;;;9.45;4.43;;;12.10;99.90;;;;;;2105541;28;20058;-79
2020/12/17 00:34:42;;;;;;;6.10;4.65;;;12.10;99.90;;;;;;2113728;28;20506;-77
2020/12/17 00:35:44;;;;;;;4.75;4.18;;;12.10;99.90;;;;;;2122835;27;20030;-76
2020/12/17 00:36:45;;;;;;;4.47;4.00;;;12.10;99.90;;;;;;2113793;28;20089;-77
2020/12/17 00:37:45;;;;;;;5.93;3.85;;;12.10;99.90;;;;;;2113369;28;20438;-76
2020/12/17 00:38:47;;;;;;;4.50;4.10;;;12.10;99.90;;;;;;2122869;27;20252;-79
2020/12/17 00:39:47;;;;;;;4.38;3.97;;;12.10;99.90;;;;;;2122839;27;20034;-79
2020/12/17 00:40:48;;;;;;;5.72;4.15;;;12.20;99.90;;;;;;2113728;28;20578;-78
2020/12/17 00:41:48;;;;;;;5.70;4.22;;;12.10;99.90;;;;;;2113246;28;20560;-78
2020/12/17 00:42:49;;;;;;;5.57;3.83;;;12.20;99.90;;;;;;2113814;28;20035;-78
2020/12/17 00:43:49;;;;;;;4.25;3.80;;;12.20;99.90;;;;;;2113527;28;20031;-78
2020/12/17 00:44:50;;;;;;;6.00;3.75;;;12.20;99.90;;;;;;2122927;27;20068;-76
2020/12/17 00:45:51;;;;;;;3.75;3.35;;;12.20;99.90;;;;;;2123041;27;20027;-76
2020/12/17 00:46:51;;;;;;;9.85;4.07;;;12.20;99.90;;;;;;2122947;27;20098;-78
2020/12/17 00:47:52;;;;;;;7.05;4.15;;;12.20;99.90;;;;;;2122713;27;20104;-78
2020/12/17 00:48:54;;;;;;;5.63;4.07;;;12.20;99.90;;;;;;2113616;28;20059;-78
2020/12/17 00:49:54;;;;;;;4.93;3.75;;;12.20;99.90;;;;;;2105426;28;20019;-78
2020/12/17 00:50:55;;;;;;;5.05;3.63;;;12.20;99.90;;;;;;2105267;28;20028;-79
2020/12/17 00:52:00;;;;;;;3.90;3.60;;;12.20;99.90;;;;;;2113353;28;20024;-76
2020/12/17 00:53:00;;;;;;;4.30;3.42;;;12.20;99.90;;;;;;2123234;27;20027;-76
2020/12/17 00:54:01;;;;;;;6.97;3.63;;;12.20;99.90;;;;;;2122730;27;20072;-79
2020/12/17 00:55:03;;;;;;;4.47;4.07;;;12.20;99.90;;;;;;2113491;28;20038;-77
2020/12/17 00:56:05;;;;;;;4.35;3.85;;;12.20;99.90;;;;;;2113807;28;20054;-78
2020/12/17 00:57:06;;;;;;;4.55;4.03;;;12.20;99.90;;;;;;2113493;28;20032;-79
2020/12/17 00:58:07;;;;;;;4.40;3.95;;;12.30;99.90;;;;;;2113523;28;20097;-78
2020/12/17 00:59:07;;;;;;;4.10;3.72;;;12.20;99.90;;;;;;2122982;27;20019;-76
2020/12/17 01:00:09;;;;;;;4.75;3.55;;;12.30;99.90;;;;;;2113405;28;20027;-78
2020/12/17 01:01:10;;;;;;;4.35;3.40;;;12.30;99.90;;;;;;2113751;27;20109;-75
2020/12/17 01:02:10;;;;;;;3.95;3.45;;;12.30;99.90;;;;;;2122426;27;20064;-75
2020/12/17 01:03:11;;;;;;;4.78;3.53;;;12.30;99.90;;;;;;2122942;27;20023;-79
2020/12/17 01:04:12;;;;;;;5.60;4.15;;;12.30;99.90;;;;;;2122696;27;20019;-78
2020/12/17 01:05:13;;;;;;;4.28;3.35;;;12.30;99.90;;;;;;2122978;27;20518;-78
2020/12/17 01:06:13;;;;;;;6.85;3.67;;;12.30;99.90;;;;;;2122531;27;20606;-77
2020/12/17 01:07:14;;;;;;;4.93;3.60;;;12.30;99.90;;;;;;2122632;27;20057;-77
2020/12/17 01:08:15;;;;;;;4.13;3.72;;;12.30;99.90;;;;;;2122809;27;20051;-77
2020/12/17 01:09:15;;;;;;;4.68;3.83;;;12.30;99.90;;;;;;2113679;28;20669;-78
2020/12/17 01:10:16;;;;;;;7.30;3.92;;;12.30;99.90;;;;;;2104847;28;20476;-78
2020/12/17 01:11:16;;;;;;;4.88;3.45;;;12.30;99.90;;;;;;2113767;28;20023;-77
2020/12/17 01:12:17;;;;;;;4.00;3.60;;;12.30;99.90;;;;;;2121909;27;20045;-77
2020/12/17 01:13:17;;;;;;;5.35;3.33;;;12.30;99.90;;;;;;2122662;27;20023;-76
2020/12/17 01:14:18;;;;;;;4.03;3.58;;;12.30;99.90;;;;;;2113352;28;20529;-78
2020/12/17 01:15:19;;;;;;;6.78;4.10;;;12.30;99.90;;;;;;2105038;28;20357;-78
2020/12/17 01:16:19;;;;;;;6.07;4.35;;;12.30;99.90;;;;;;2113278;28;20438;-78
2020/12/17 01:17:20;;;;;;;6.05;4.10;;;12.30;99.90;;;;;;2122438;27;20106;-77
2020/12/17 01:18:20;;;;;;;5.35;3.88;;;12.30;99.90;;;;;;2122179;27;20024;-77
2020/12/17 01:19:21;;;;;;;6.60;3.88;;;12.30;99.90;;;;;;2122542;27;20027;-77
2020/12/17 01:20:22;;;;;;;3.95;3.58;;;12.30;99.90;;;;;;2122577;27;20019;-76
2020/12/17 01:21:22;;;;;;;4.50;3.63;;;12.30;99.90;;;;;;2122229;27;20050;-75
2020/12/17 01:22:23;;;;;;;7.38;3.67;;;12.30;99.90;;;;;;2122393;27;20019;-79
2020/12/17 01:23:23;;;;;;;5.63;3.53;;;12.30;99.90;;;;;;2122582;27;20432;-76
2020/12/17 01:24:24;;;;;;;4.97;3.50;;;12.30;99.90;;;;;;2122284;27;20530;-77
2020/12/17 01:25:25;;;;;;;3.20;2.90;;;12.30;99.90;;;;;;2122505;27;20051;-76
2020/12/17 01:26:26;;;;;;;6.22;3.72;;;12.30;99.90;;;;;;2122568;27;20450;-76
2020/12/17 01:27:29;;;;;;;7.00;3.97;;;12.30;99.90;;;;;;2122653;27;20094;-78
2020/12/17 01:28:30;;;;;;;4.97;3.85;;;12.30;99.90;;;;;;2122447;27;20047;-76
2020/12/17 01:29:30;;;;;;;4.65;3.92;;;12.30;99.90;;;;;;2122488;27;20573;-75
2020/12/17 01:30:31;;;;;;;4.55;3.92;;;12.30;99.90;;;;;;2122321;27;20023;-78
2020/12/17 01:31:31;;;;;;;7.53;4.03;;;12.30;99.90;;;;;;2122143;27;20019;-75
2020/12/17 01:32:32;;;;;;;4.47;3.53;;;12.30;99.90;;;;;;2122423;27;20019;-76
2020/12/17 01:33:33;;;;;;;4.60;3.60;;;12.30;99.90;;;;;;2122626;27;20031;-75
2020/12/17 01:34:34;;;;;;;4.57;3.95;;;12.30;99.90;;;;;;2113026;28;20458;-76
2020/12/17 01:35:34;;;;;;;4.75;3.80;;;12.20;99.90;;;;;;2104841;28;20082;-77
2020/12/17 01:36:35;;;;;;;3.83;3.45;;;12.30;99.90;;;;;;2113519;28;20141;-77
2020/12/17 01:37:35;;;;;;;6.47;4.00;;;12.20;99.90;;;;;;2113032;28;20019;-79
2020/12/17 01:38:40;;;;;;;4.78;3.63;;;12.20;99.90;;;;;;2113570;28;20071;-78
2020/12/17 01:39:41;;;;;;;4.25;3.42;;;12.20;99.90;;;;;;2122569;27;20031;-77
2020/12/17 01:40:46;;;;;;;4.35;3.47;;;12.20;99.90;;;;;;2122513;27;20054;-76
2020/12/17 01:41:46;;;;;;;4.55;3.65;;;12.20;99.90;;;;;;2121886;27;20027;-76
2020/12/17 01:42:47;;;;;;;5.28;3.88;;;12.20;99.90;;;;;;2122575;27;20019;-76
2020/12/17 01:43:47;;;;;;;4.25;3.72;;;12.20;99.90;;;;;;2113227;28;20024;-77
2020/12/17 01:44:48;;;;;;;6.10;4.03;;;12.20;99.90;;;;;;2113343;28;20015;-80
2020/12/17 01:45:49;;;;;;;4.18;3.78;;;12.20;99.90;;;;;;2113122;28;20024;-79
2020/12/17 01:46:51;;;;;;;6.03;3.58;;;12.20;99.90;;;;;;2113369;28;20016;-78
2020/12/17 01:47:53;;;;;;;3.97;3.58;;;12.20;99.90;;;;;;2122233;27;20079;-78
2020/12/17 01:48:54;;;;;;;3.95;3.13;;;12.20;99.90;;;;;;2122717;27;20031;-76
2020/12/17 01:49:54;;;;;;;5.38;3.60;;;12.20;99.90;;;;;;2122145;27;20023;-78
2020/12/17 01:50:55;;;;;;;4.90;3.75;;;12.20;99.90;;;;;;2122267;27;20049;-77
2020/12/17 01:51:55;;;;;;;5.82;4.00;;;12.20;99.90;;;;;;2112869;28;20113;-77
2020/12/17 01:52:57;;;;;;;5.63;3.42;;;12.20;99.90;;;;;;2113246;28;20027;-77
2020/12/17 01:53:57;;;;;;;5.05;3.63;;;12.20;99.90;;;;;;2122214;27;20027;-77
2020/12/17 01:54:59;;;;;;;4.95;3.72;;;12.20;99.90;;;;;;2122604;27;20061;-76
2020/12/17 01:56:02;;;;;;;6.00;4.57;;;12.20;99.90;;;;;;2113219;28;20051;-78
2020/12/17 01:57:04;;;;;;;3.72;3.42;;;12.20;99.90;;;;;;2113571;27;20023;-78
2020/12/17 01:58:06;;;;;;;6.43;3.45;;;12.20;99.90;;;;;;2113032;28;20123;-79
2020/12/17 01:59:15;;;;;;;5.03;3.75;;;12.20;99.90;;;;;;2113204;28;20016;-78
2020/12/17 02:00:19;;;;;;;5.43;3.75;;;12.20;99.90;;;;;;2122089;27;20475;-78
2020/12/17 02:01:23;;;;;;;4.95;3.53;;;12.20;99.90;;;;;;2122224;27;20019;-76
2020/12/17 02:02:29;;;;;;;5.30;3.50;;;12.20;99.90;;;;;;2104546;28;20114;-80
2020/12/17 02:03:30;;;;;;;11.77;3.53;;;12.20;99.90;;;;;;2097985;28;20428;-77
2020/12/17 02:04:31;;;;;;;7.18;3.95;;;12.20;99.90;;;;;;2112856;28;20076;-79
2020/12/17 02:05:32;;;;;;;5.03;3.75;;;12.20;99.90;;;;;;2122697;27;20535;-77
2020/12/17 02:06:34;;;;;;;3.78;3.13;;;12.20;99.90;;;;;;2112902;28;20020;-79
2020/12/17 02:07:34;;;;;;;5.03;3.50;;;12.20;99.90;;;;;;2104842;28;20075;-76
2020/12/17 02:08:38;;;;;;;4.47;3.22;;;12.20;99.90;;;;;;2113152;28;20024;-76
2020/12/17 02:09:39;;;;;;;4.28;3.45;;;12.20;99.90;;;;;;2113023;28;20077;-79
2020/12/17 02:10:40;;;;;;;4.40;3.38;;;12.20;99.90;;;;;;2112948;28;20026;-77
2020/12/17 02:11:50;;;;;;;4.22;3.20;;;12.20;99.90;;;;;;2112678;28;20097;-75
2020/12/17 02:12:51;;;;;;;3.92;3.53;;;12.20;99.90;;;;;;2114592;27;20023;-77
2020/12/17 02:13:52;;;;;;;4.43;3.35;;;12.20;99.90;;;;;;2112987;28;20031;-77
2020/12/17 02:14:52;;;;;;;3.72;3.40;;;12.20;99.90;;;;;;2104432;28;20470;-76
2020/12/17 02:15:53;;;;;;;5.07;3.63;;;12.20;99.90;;;;;;2113137;28;20026;-77
2020/12/17 02:16:54;;;;;;;5.03;2.92;;;12.20;99.90;;;;;;2122070;27;20057;-78
2020/12/17 02:17:54;;;;;;;5.88;3.55;;;12.20;99.90;;;;;;2122025;27;20023;-78
2020/12/17 02:18:55;;;;;;;3.70;3.35;;;12.20;99.90;;;;;;2122163;27;20030;-77
2020/12/17 02:19:56;;;;;;;3.38;3.05;;;12.20;99.90;;;;;;2121993;27;20027;-75
2020/12/17 02:20:56;;;;;;;4.05;3.10;;;12.30;99.90;;;;;;2112845;28;20105;-78
2020/12/17 02:21:57;;;;;;;5.00;3.53;;;12.20;99.90;;;;;;2104207;28;20110;-75
2020/12/17 02:22:58;;;;;;;4.45;3.17;;;12.20;99.90;;;;;;2113008;28;20019;-77
2020/12/17 02:23:59;;;;;;;6.03;3.20;;;12.30;99.90;;;;;;2122285;27;20023;-76
2020/12/17 02:25:02;;;;;;;5.03;3.40;;;12.30;99.90;;;;;;2122279;27;20080;-74
2020/12/17 02:26:03;;;;;;;3.47;2.97;;;12.30;99.90;;;;;;2112751;28;20062;-76
2020/12/17 02:27:03;;;;;;;4.47;3.28;;;12.30;99.90;;;;;;2112888;28;20016;-75
2020/12/17 02:28:04;;;;;;;5.78;3.40;;;12.30;99.90;;;;;;2122210;27;20103;-74
2020/12/17 02:29:05;;;;;;;4.75;3.05;;;12.30;99.90;;;;;;2122115;27;20417;-77
2020/12/17 02:30:07;;;;;;;4.70;3.33;;;12.30;99.90;;;;;;2121436;27;20043;-77
2020/12/17 02:31:08;;;;;;;4.90;3.20;;;12.30;99.90;;;;;;2122053;27;20030;-75
2020/12/17 02:32:09;;;;;;;3.45;3.15;;;12.30;99.90;;;;;;2121475;27;20047;-76
2020/12/17 02:33:13;;;;;;;4.50;3.15;;;12.30;99.90;;;;;;2121960;27;20019;-76
2020/12/17 02:34:13;;;;;;;4.78;3.30;;;12.30;99.90;;;;;;2112819;28;20031;-77
2020/12/17 02:35:14;;;;;;;8.43;2.88;;;12.30;99.90;;;;;;2113075;28;20487;-77
2020/12/17 02:36:14;;;;;;;3.05;2.65;;;12.30;99.90;;;;;;2112875;28;20027;-77
2020/12/17 02:37:15;;;;;;;4.38;2.78;;;12.30;99.90;;;;;;2112778;28;20023;-75
2020/12/17 02:38:16;;;;;;;5.32;3.17;;;12.30;99.90;;;;;;2120900;27;20027;-78
2020/12/17 02:39:17;;;;;;;4.00;3.55;;;12.30;99.90;;;;;;2121253;27;20023;-78
2020/12/17 02:40:17;;;;;;;5.55;3.25;;;12.30;99.90;;;;;;2122098;27;20448;-76
2020/12/17 02:41:18;;;;;;;6.28;3.60;;;12.40;99.90;;;;;;2121949;27;20156;-77
2020/12/17 02:42:18;;;;;;;3.22;2.92;;;12.40;99.90;;;;;;2121552;27;20024;-76
2020/12/17 02:43:19;;;;;;;3.90;3.30;;;12.40;99.90;;;;;;2121845;27;20470;-77
2020/12/17 02:44:20;;;;;;;4.25;3.30;;;12.30;99.90;;;;;;2112616;28;20027;-76
2020/12/17 02:45:20;;;;;;;3.70;2.83;;;12.30;99.90;;;;;;2112934;28;20027;-77
2020/12/17 02:46:21;;;;;;;4.43;2.78;;;12.40;99.90;;;;;;2121834;27;20027;-76
2020/12/17 02:47:22;;;;;;;5.65;3.15;;;12.40;99.90;;;;;;2109170;28;20024;-78
2020/12/17 02:48:22;;;;;;;2.80;2.58;;;12.30;99.90;;;;;;2104319;28;20152;-76
2020/12/17 02:49:23;;;;;;;4.18;3.17;;;12.30;99.90;;;;;;2112446;28;20035;-75
2020/12/17 02:50:24;;;;;;;3.80;3.17;;;12.30;99.90;;;;;;2113078;28;20019;-78
2020/12/17 02:51:24;;;;;;;5.43;3.58;;;12.40;99.90;;;;;;2121577;27;20102;-77
2020/12/17 02:52:25;;;;;;;3.78;3.22;;;12.40;99.90;;;;;;2112617;28;20454;-76
2020/12/17 02:53:25;;;;;;;4.15;2.90;;;12.40;99.90;;;;;;2112994;28;20024;-76
2020/12/17 02:54:26;;;;;;;6.22;3.17;;;12.40;99.90;;;;;;2121748;27;20433;-77
2020/12/17 02:55:26;;;;;;;3.05;2.80;;;12.40;99.90;;;;;;2121961;27;20030;-79
2020/12/17 02:56:27;;;;;;;3.80;3.15;;;12.40;99.90;;;;;;2112910;28;20429;-77
2020/12/17 02:57:27;;;;;;;3.92;3.03;;;12.40;99.90;;;;;;2104084;28;20293;-77
2020/12/17 02:58:28;;;;;;;4.50;3.28;;;12.40;99.90;;;;;;2112830;28;20206;-79
2020/12/17 02:59:28;;;;;;;5.80;3.50;;;12.40;99.90;;;;;;2121551;28;20384;-79
2020/12/17 03:00:29;;;;;;;3.30;2.60;;;12.40;99.90;;;;;;2121342;28;20019;-76
2020/12/17 03:01:30;;;;;;;4.03;3.00;;;12.40;99.90;;;;;;2121516;28;20467;-75
2020/12/17 03:02:30;;;;;;;3.40;3.10;;;12.40;99.90;;;;;;2112776;28;20069;-77
2020/12/17 03:03:31;;;;;;;4.07;2.95;;;12.40;99.90;;;;;;2112910;28;20051;-77
2020/12/17 03:04:31;;;;;;;5.57;3.13;;;12.40;99.90;;;;;;2121990;28;20136;-77
2020/12/17 03:05:32;;;;;;;5.28;2.97;;;12.40;99.90;;;;;;2121565;28;20102;-75
2020/12/17 03:06:32;;;;;;;3.30;3.00;;;12.40;99.90;;;;;;2121874;28;20031;-77
2020/12/17 03:07:33;;;;;;;4.43;3.42;;;12.40;99.90;;;;;;2121839;28;20535;-77
2020/12/17 03:08:34;;;;;;;5.10;3.40;;;12.40;99.90;;;;;;2112767;28;20045;-76
2020/12/17 03:09:34;;;;;;;3.08;2.80;;;12.40;99.90;;;;;;2112817;28;20019;-79
2020/12/17 03:10:35;;;;;;;2.90;2.67;;;12.40;99.90;;;;;;2121846;28;20402;-76
2020/12/17 03:11:35;;;;;;;4.80;2.92;;;12.40;99.90;;;;;;2121358;28;20024;-78
2020/12/17 03:12:36;;;;;;;4.28;2.78;;;12.40;99.90;;;;;;2121565;28;20148;-77
2020/12/17 03:13:36;;;;;;;3.72;3.13;;;12.40;99.90;;;;;;2112526;28;20024;-76
2020/12/17 03:14:37;;;;;;;5.85;3.30;;;12.40;99.90;;;;;;2103944;28;20024;-76
2020/12/17 03:15:38;;;;;;;4.32;3.25;;;12.40;99.90;;;;;;2104345;28;20515;-77
2020/12/17 03:16:38;;;;;;;3.80;3.45;;;12.30;99.90;;;;;;2095647;28;20029;-77
2020/12/17 03:17:40;;;;;;;4.93;3.47;;;12.40;99.90;;;;;;2104306;28;20020;-77
2020/12/17 03:18:40;;;;;;;3.38;3.08;;;12.30;99.90;;;;;;2121865;28;20329;-76
2020/12/17 03:19:41;;;;;;;6.88;3.22;;;12.40;99.90;;;;;;2121896;28;20425;-76
2020/12/17 03:20:41;;;;;;;4.15;3.25;;;12.30;99.90;;;;;;2121898;28;20034;-78
2020/12/17 03:21:42;;;;;;;5.15;3.20;;;12.40;99.90;;;;;;2121578;28;20027;-77
2020/12/17 03:22:42;;;;;;;4.75;3.38;;;12.40;99.90;;;;;;2121550;28;20027;-78
2020/12/17 03:23:43;;;;;;;5.00;3.85;;;12.30;99.90;;;;;;2122315;28;20374;-77
2020/12/17 03:24:44;;;;;;;4.90;3.05;;;12.40;99.90;;;;;;2121733;28;20106;-77
2020/12/17 03:25:44;;;;;;;4.35;3.58;;;12.40;99.90;;;;;;2112605;28;20024;-76
2020/12/17 03:26:45;;;;;;;5.18;3.28;;;12.40;99.90;;;;;;2112763;28;20044;-77
2020/12/17 03:27:45;;;;;;;6.45;3.05;;;12.40;99.90;;;;;;2121706;28;20044;-75
2020/12/17 03:28:46;;;;;;;4.50;3.42;;;12.40;99.90;;;;;;2121612;28;20031;-77
2020/12/17 03:29:46;;;;;;;5.53;3.30;;;12.30;99.90;;;;;;2112901;28;20455;-77
2020/12/17 03:30:47;;;;;;;5.07;3.20;;;12.30;99.90;;;;;;2104255;28;20051;-77
2020/12/17 03:31:48;;;;;;;4.68;3.53;;;12.40;99.90;;;;;;2104043;28;20057;-79
2020/12/17 03:32:48;;;;;;;3.20;2.85;;;12.40;99.90;;;;;;2112692;28;20064;-75
2020/12/17 03:33:49;;;;;;;5.15;3.58;;;12.40;99.90;;;;;;2121852;28;20027;-75
2020/12/17 03:34:49;;;;;;;4.72;3.50;;;12.40;99.90;;;;;;2121726;28;20035;-75
2020/12/17 03:35:50;;;;;;;4.68;3.22;;;12.40;99.90;;;;;;2112853;28;20024;-78
2020/12/17 03:36:51;;;;;;;5.68;4.00;;;12.30;99.90;;;;;;2112728;28;20051;-76
2020/12/17 03:37:52;;;;;;;4.15;3.10;;;12.40;99.90;;;;;;2112330;28;20344;-76
2020/12/17 03:38:52;;;;;;;3.17;2.85;;;12.40;99.90;;;;;;2104068;28;20024;-77
2020/12/17 03:39:53;;;;;;;4.20;3.28;;;12.30;99.90;;;;;;2104178;28;20036;-77
2020/12/17 03:40:54;;;;;;;3.78;3.47;;;12.40;99.90;;;;;;2112503;28;20050;-77
2020/12/17 03:41:54;;;;;;;5.35;3.63;;;12.40;99.90;;;;;;2121434;27;20098;-76
2020/12/17 03:42:55;;;;;;;3.78;3.35;;;12.30;99.90;;;;;;2123307;27;20019;-75
2020/12/17 03:43:56;;;;;;;6.85;3.75;;;12.40;99.90;;;;;;2105903;28;20109;-78
2020/12/17 03:44:57;;;;;;;4.97;3.50;;;12.40;99.90;;;;;;2105701;28;20020;-78
2020/12/17 03:45:57;;;;;;;7.57;3.22;;;12.30;99.90;;;;;;2123381;27;20061;-76
2020/12/17 03:46:58;;;;;;;4.97;3.40;;;12.30;99.90;;;;;;2123264;27;20294;-78
2020/12/17 03:47:58;;;;;;;7.90;3.65;;;12.40;99.90;;;;;;2123383;27;20023;-78
2020/12/17 03:48:59;;;;;;;5.72;3.17;;;12.40;99.90;;;;;;2123090;27;20015;-78
2020/12/17 03:49:59;;;;;;;5.25;3.80;;;12.40;99.90;;;;;;2123196;27;20091;-78
2020/12/17 03:51:00;;;;;;;4.07;3.13;;;12.40;99.90;;;;;;2114184;28;20073;-76
2020/12/17 03:52:00;;;;;;;4.57;3.20;;;12.30;99.90;;;;;;2105261;28;20168;-78
2020/12/17 03:53:01;;;;;;;4.82;3.33;;;12.30;99.90;;;;;;2105723;28;20514;-75
2020/12/17 03:54:02;;;;;;;6.47;3.53;;;12.30;99.90;;;;;;2105695;28;20030;-75
2020/12/17 03:55:03;;;;;;;3.97;3.15;;;12.40;99.90;;;;;;2114258;28;20032;-77
2020/12/17 03:56:04;;;;;;;3.50;3.20;;;12.40;99.90;;;;;;2123262;27;20048;-77
2020/12/17 03:57:04;;;;;;;4.18;3.33;;;12.40;99.90;;;;;;2123276;27;20027;-78
2020/12/17 03:58:05;;;;;;;4.03;3.33;;;12.30;99.90;;;;;;2123250;27;20284;-77
2020/12/17 03:59:06;;;;;;;4.20;3.55;;;12.40;99.90;;;;;;2123105;27;20022;-78
2020/12/17 04:00:07;;;;;;;4.60;3.42;;;12.30;99.90;;;;;;2113970;28;20153;-76
2020/12/17 04:01:07;;;;;;;5.03;3.58;;;12.40;99.90;;;;;;2114143;28;20518;-76
2020/12/17 04:02:08;;;;;;;4.18;3.40;;;12.40;99.90;;;;;;2122755;27;20019;-78
2020/12/17 04:03:08;;;;;;;3.92;3.00;;;12.30;99.90;;;;;;2114011;28;20495;-75
2020/12/17 04:04:09;;;;;;;5.70;3.20;;;12.30;99.90;;;;;;2114003;28;20047;-78
2020/12/17 04:05:09;;;;;;;6.28;3.38;;;12.30;99.90;;;;;;2113967;28;20020;-79
2020/12/17 04:06:10;;;;;;;5.10;3.85;;;12.30;99.90;;;;;;2114125;28;20023;-79
2020/12/17 04:07:13;;;;;;;5.47;3.30;;;12.30;99.90;;;;;;2123185;27;20299;-77
2020/12/17 04:08:13;;;;;;;6.75;3.33;;;12.30;99.90;;;;;;2123092;27;20478;-77
2020/12/17 04:09:14;;;;;;;4.63;3.55;;;12.30;99.90;;;;;;2123298;27;20027;-79
2020/12/17 04:10:14;;;;;;;3.83;3.30;;;12.30;99.90;;;;;;2123066;27;20485;-76
2020/12/17 04:11:15;;;;;;;3.50;3.20;;;12.30;99.90;;;;;;2123286;27;20027;-78
2020/12/17 04:12:15;;;;;;;5.60;3.20;;;12.30;99.90;;;;;;2113334;28;20024;-78
2020/12/17 04:13:16;;;;;;;5.15;3.47;;;12.30;99.90;;;;;;2105811;28;20440;-77
2020/12/17 04:14:16;;;;;;;4.45;3.80;;;12.30;99.90;;;;;;2114083;28;20426;-78
2020/12/17 04:15:17;;;;;;;3.88;3.47;;;12.30;99.90;;;;;;2122637;27;20027;-78
2020/12/17 04:16:18;;;;;;;4.55;3.38;;;12.30;99.90;;;;;;2122802;27;20087;-77
2020/12/17 04:17:19;;;;;;;4.70;3.63;;;12.30;99.90;;;;;;2123018;27;20478;-75
2020/12/17 04:18:19;;;;;;;3.88;3.47;;;12.30;99.90;;;;;;2122867;27;20019;-77
2020/12/17 04:19:20;;;;;;;4.75;2.95;;;12.30;99.90;;;;;;2113954;28;20080;-79
2020/12/17 04:20:20;;;;;;;3.72;3.42;;;12.30;99.90;;;;;;2113965;28;20049;-77
2020/12/17 04:21:21;;;;;;;4.97;3.58;;;12.30;99.90;;;;;;2113659;28;20020;-77
2020/12/17 04:22:21;;;;;;;4.30;3.20;;;12.30;99.90;;;;;;2113815;28;20049;-77
2020/12/17 04:23:22;;;;;;;5.53;3.90;;;12.30;99.90;;;;;;2105241;28;20487;-76
2020/12/17 04:24:23;;;;;;;4.35;3.30;;;12.30;99.90;;;;;;2114010;28;20059;-78
2020/12/17 04:25:24;;;;;;;6.18;4.03;;;12.30;99.90;;;;;;2123137;27;20031;-79
2020/12/17 04:26:24;;;;;;;6.25;3.72;;;12.30;99.90;;;;;;2113905;28;20020;-79
2020/12/17 04:27:25;;;;;;;5.10;3.40;;;12.30;99.90;;;;;;2113748;28;20020;-75
2020/12/17 04:28:26;;;;;;;5.50;3.88;;;12.30;99.90;;;;;;2123009;27;20026;-76
2020/12/17 04:29:26;;;;;;;4.88;3.33;;;12.30;99.90;;;;;;2122999;27;20031;-76
2020/12/17 04:30:27;;;;;;;4.28;3.47;;;12.30;99.90;;;;;;2122946;27;20058;-79
2020/12/17 04:31:28;;;;;;;4.50;2.97;;;12.30;99.90;;;;;;2122644;27;20023;-76
2020/12/17 04:32:29;;;;;;;4.90;3.90;;;12.30;99.90;;;;;;2122918;27;20447;-77
2020/12/17 04:33:30;;;;;;;4.45;3.53;;;12.30;99.90;;;;;;2122883;27;20103;-77
2020/12/17 04:34:31;;;;;;;4.40;3.75;;;12.30;99.90;;;;;;2122955;27;20023;-75
2020/12/17 04:35:31;;;;;;;4.53;3.30;;;12.30;99.90;;;;;;2122995;27;20420;-79
2020/12/17 04:36:32;;;;;;;3.50;3.20;;;12.30;99.90;;;;;;2122969;27;20038;-77
2020/12/17 04:37:33;;;;;;;6.20;4.15;;;12.30;99.90;;;;;;2113610;28;20024;-76
2020/12/17 04:38:34;;;;;;;4.93;3.67;;;12.30;99.90;;;;;;2113949;28;20043;-78
2020/12/17 04:39:34;;;;;;;6.22;3.75;;;12.30;99.90;;;;;;2122658;27;20471;-76
2020/12/17 04:40:35;;;;;;;4.93;3.33;;;12.30;99.90;;;;;;2113823;28;20027;-77
2020/12/17 04:41:37;;;;;;;4.75;3.65;;;12.30;99.90;;;;;;2113378;28;20020;-75
2020/12/17 04:42:38;;;;;;;4.03;3.60;;;12.30;99.90;;;;;;2122804;27;20215;-79
2020/12/17 04:43:39;;;;;;;5.38;3.63;;;12.20;99.90;;;;;;2122764;27;20019;-75
2020/12/17 04:44:42;;;;;;;4.45;3.53;;;12.30;99.90;;;;;;2113789;28;20028;-77
2020/12/17 04:45:43;;;;;;;4.22;3.83;;;12.20;99.90;;;;;;2105456;28;20039;-77
2020/12/17 04:46:57;;;;;;;6.35;3.67;;;12.20;99.90;;;;;;2113692;28;20023;-78
2020/12/17 04:47:59;;;;;;;4.35;3.95;;;12.20;99.90;;;;;;2123212;27;20030;-77
2020/12/17 04:49:02;;;;;;;4.72;3.88;;;12.20;99.90;;;;;;2113778;28;20089;-77
2020/12/17 04:50:06;;;;;;;3.53;3.22;;;12.30;99.90;;;;;;2105815;28;20026;-75
2020/12/17 04:51:08;;;;;;;5.78;3.75;;;12.20;99.90;;;;;;2114302;27;20057;-77
2020/12/17 04:52:12;;;;;;;3.60;3.30;;;12.20;99.90;;;;;;2113209;28;20231;-75
2020/12/17 04:53:17;;;;;;;4.38;3.50;;;12.20;99.90;;;;;;2105504;28;20155;-75
2020/12/17 04:54:19;;;;;;;9.18;3.75;;;12.20;99.90;;;;;;2113735;28;20486;-76
2020/12/17 04:55:24;;;;;;;5.65;3.45;;;12.20;99.90;;;;;;2105295;28;20028;-76
2020/12/17 04:56:27;;;;;;;6.13;3.70;;;12.20;99.90;;;;;;2114230;27;20020;-78
2020/12/17 04:57:29;;;;;;;5.32;3.70;;;12.20;99.90;;;;;;2113500;28;20089;-77
2020/12/17 04:58:31;;;;;;;8.10;3.95;;;12.20;99.90;;;;;;2113707;28;20031;-76
2020/12/17 04:59:48;;;;;;;4.78;3.60;;;12.20;99.90;;;;;;2122950;27;20099;-78
2020/12/17 05:00:54;;;;;;;4.32;3.40;;;12.20;99.90;;;;;;2122826;27;20015;-77
2020/12/17 05:01:59;;;;;;;4.35;3.50;;;12.20;99.90;;;;;;2122422;27;20374;-77
2020/12/17 05:03:09;;;;;;;7.25;3.88;;;12.20;99.90;;;;;;2122661;27;20481;-77
2020/12/17 05:04:11;;;;;;;4.10;3.35;;;12.20;99.90;;;;;;2105472;28;20403;-76
2020/12/17 05:05:12;;;;;;;4.70;4.03;;;12.20;99.90;;;;;;2106211;27;20253;-76
2020/12/17 05:06:22;;;;;;;6.05;3.80;;;12.20;99.90;;;;;;2122900;27;20011;-76
2020/12/17 05:07:24;;;;;;;3.88;3.58;;;12.20;99.90;;;;;;2122849;27;20479;-75
2020/12/17 05:08:24;;;;;;;9.07;3.83;;;12.20;99.90;;;;;;2122781;27;20475;-77
2020/12/17 05:09:25;;;;;;;5.30;3.47;;;12.20;99.90;;;;;;2113479;28;20034;-78
2020/12/17 05:10:25;;;;;;;4.75;3.35;;;12.20;99.90;;;;;;2105278;28;20115;-77
2020/12/17 05:11:26;;;;;;;3.97;3.58;;;12.20;99.90;;;;;;2104717;28;20114;-78
2020/12/17 05:12:27;;;;;;;5.30;3.63;;;12.20;99.90;;;;;;2113732;28;20033;-75
2020/12/17 05:13:27;;;;;;;5.63;3.70;;;12.20;99.90;;;;;;2122610;27;20058;-77
2020/12/17 05:14:29;;;;;;;6.32;3.72;;;12.20;99.90;;;;;;2122682;27;20041;-75
2020/12/17 05:15:29;;;;;;;4.13;3.55;;;12.20;99.90;;;;;;2122649;27;20032;-76
2020/12/17 05:16:30;;;;;;;4.57;3.83;;;12.20;99.90;;;;;;2122720;27;20043;-76
2020/12/17 05:17:31;;;;;;;4.20;3.80;;;12.20;99.90;;;;;;2113187;28;20059;-78
2020/12/17 05:18:31;;;;;;;5.80;3.92;;;12.20;99.90;;;;;;2114084;28;20078;-78